This is the latest recevied weather packets stored in our database for station/object WX3I. If no packets are shown the sender has not sent any weather packets the latest 10 day(s).
| Time | Temp. | Humidity | Pressure | Rain* | Wind** | Luminosity | Snow |
|---|---|---|---|---|---|---|---|
| 1778144404 | 8.89° C | 96% | 1011.6 hPa | 0.76 mm | - | 0 W/m² | - |
| 1778139905 | 8.89° C | 95% | 1012.2 hPa | 3.56 mm | - | 0 W/m² | - |
| 1778136904 | 9.44° C | 95% | 1012.5 hPa | 3.3 mm | - | 0 W/m² | - |
| 1778136004 | 9.44° C | 95% | 1012.6 hPa | 3.05 mm | - | 0 W/m² | - |
| 1778135404 | 9.44° C | 95% | 1012.2 hPa | 5.08 mm | - | 0 W/m² | - |
| 1778134804 | 9.44° C | 95% | 1012.5 hPa | 3.81 mm | - | 0 W/m² | - |
| 1778132104 | 10° C | 92% | 1012.1 hPa | 1.02 mm | - | 0 W/m² | - |
| 1778131205 | 10.56° C | 90% | 1012.1 hPa | 1.02 mm | - | 0 W/m² | - |
| 1778130605 | 11.11° C | 87% | 1012.3 hPa | 0.76 mm | - | 0 W/m² | - |
| 1778128505 | 11.67° C | 85% | 1011.4 hPa | 0 mm | - | 0 W/m² | - |
| 1778128205 | 11.67° C | 86% | 1011.6 hPa | 0 mm | - | 0 W/m² | - |
| 1778125504 | 12.22° C | 90% | 1011.6 hPa | 0 mm | - | 0 W/m² | - |
| 1778124004 | 12.78° C | 91% | 1011.3 hPa | 1.27 mm | - | 0 W/m² | - |
| 1778121604 | 16.11° C | 94% | 1010.7 hPa | 1.78 mm | - | 0 W/m² | - |
| 1778119504 | 16.67° C | 94% | 1010.9 hPa | 4.83 mm | - | 0 W/m² | - |
| 1778118904 | 17.22° C | 94% | 1011 hPa | 4.32 mm | - | 0 W/m² | - |
| 1778114404 | 18.33° C | 84% | 1010.3 hPa | 0 mm | - | 0 W/m² | - |
| 1778112905 | 18.33° C | 83% | 1010 hPa | 0 mm | - | 0 W/m² | - |
| 1778111404 | 18.89° C | 82% | 1009.6 hPa | 0 mm | - | 21 W/m² | - |
| 1778109304 | 18.89° C | 82% | 1009.6 hPa | 0 mm | - | 97 W/m² | - |
| 1778108104 | 18.89° C | 81% | 1009.7 hPa | 0 mm | - | 209 W/m² | - |
| 1778106004 | 18.89° C | 80% | 1009.5 hPa | 0 mm | - | 382 W/m² | - |
| 1778105704 | 19.44° C | 80% | 1009.4 hPa | 0 mm | - | 401 W/m² | - |
| 1778105105 | 19.44° C | 80% | 1009.4 hPa | 0 mm | - | 439 W/m² | - |
| 1778103604 | 19.44° C | 80% | 1009.2 hPa | 0 mm | - | 537 W/m² | - |
* Rain latest hour (hover to see other rain measurements)
** Current wind speed in m/s (hover to see current wind gust speed)